sensor_id;sensor_type;location;lat;lon;timestamp;pressure;altitude;pressure_sealevel;temperature;humidity
59170;BME280;52474;52.236;5.114;2022-12-18T00:01:42;102872.22;;;-4.30;100.00
59170;BME280;52474;52.236;5.114;2022-12-18T00:04:16;102866.06;;;-4.43;100.00
59170;BME280;52474;52.236;5.114;2022-12-18T00:06:44;102863.44;;;-4.46;100.00
59170;BME280;52474;52.236;5.114;2022-12-18T00:09:10;102873.00;;;-4.40;100.00
59170;BME280;52474;52.236;5.114;2022-12-18T00:11:35;102870.41;;;-4.36;100.00
59170;BME280;52474;52.236;5.114;2022-12-18T00:14:01;102871.25;;;-4.40;100.00
59170;BME280;52474;52.236;5.114;2022-12-18T00:16:28;102870.41;;;-4.39;100.00
59170;BME280;52474;52.236;5.114;2022-12-18T00:18:58;102873.00;;;-4.37;100.00
59170;BME280;52474;52.236;5.114;2022-12-18T00:21:24;102868.63;;;-4.44;100.00
59170;BME280;52474;52.236;5.114;2022-12-18T00:23:50;102877.31;;;-4.38;100.00
59170;BME280;52474;52.236;5.114;2022-12-18T00:26:19;102877.28;;;-4.39;100.00
59170;BME280;52474;52.236;5.114;2022-12-18T00:28:45;102878.97;;;-4.44;100.00
59170;BME280;52474;52.236;5.114;2022-12-18T00:31:17;102876.38;;;-4.44;100.00
59170;BME280;52474;52.236;5.114;2022-12-18T00:33:43;102879.78;;;-4.48;100.00
59170;BME280;52474;52.236;5.114;2022-12-18T00:36:14;102846.03;;;-4.64;100.00
59170;BME280;52474;52.236;5.114;2022-12-18T00:38:41;102868.56;;;-4.52;100.00
59170;BME280;52474;52.236;5.114;2022-12-18T00:41:08;102849.59;;;-4.53;100.00
59170;BME280;52474;52.236;5.114;2022-12-18T00:43:36;102857.38;;;-4.49;100.00
59170;BME280;52474;52.236;5.114;2022-12-18T00:46:02;102868.66;;;-4.43;100.00
59170;BME280;52474;52.236;5.114;2022-12-18T00:48:28;102840.94;;;-4.58;100.00
59170;BME280;52474;52.236;5.114;2022-12-18T00:50:54;102878.03;;;-4.51;100.00
59170;BME280;52474;52.236;5.114;2022-12-18T00:53:20;102863.25;;;-4.67;100.00
59170;BME280;52474;52.236;5.114;2022-12-18T00:55:46;102870.31;;;-4.49;100.00
59170;BME280;52474;52.236;5.114;2022-12-18T00:58:13;102843.50;;;-4.58;100.00
59170;BME280;52474;52.236;5.114;2022-12-18T01:00:39;102865.97;;;-4.50;100.00
59170;BME280;52474;52.236;5.114;2022-12-18T01:03:05;102864.28;;;-4.48;100.00
59170;BME280;52474;52.236;5.114;2022-12-18T01:05:31;102878.06;;;-4.49;100.00
59170;BME280;52474;52.236;5.114;2022-12-18T01:07:57;102865.97;;;-4.52;100.00
59170;BME280;52474;52.236;5.114;2022-12-18T01:10:24;102873.69;;;-4.57;100.00
59170;BME280;52474;52.236;5.114;2022-12-18T01:12:50;102863.25;;;-4.64;100.00
59170;BME280;52474;52.236;5.114;2022-12-18T01:15:17;102839.00;;;-4.76;100.00
59170;BME280;52474;52.236;5.114;2022-12-18T01:17:43;102865.84;;;-4.63;100.00
59170;BME280;52474;52.236;5.114;2022-12-18T01:20:11;102875.31;;;-4.63;100.00
59170;BME280;52474;52.236;5.114;2022-12-18T01:22:37;102850.19;;;-4.78;100.00
59170;BME280;52474;52.236;5.114;2022-12-18T01:25:04;102865.84;;;-4.63;100.00
59170;BME280;52474;52.236;5.114;2022-12-18T01:27:31;102858.91;;;-4.65;100.00
59170;BME280;52474;52.236;5.114;2022-12-18T01:29:56;102867.53;;;-4.68;100.00
59170;BME280;52474;52.236;5.114;2022-12-18T01:32:22;102851.84;;;-4.85;100.00
59170;BME280;52474;52.236;5.114;2022-12-18T01:34:49;102859.56;;;-4.89;100.00
59170;BME280;52474;52.236;5.114;2022-12-18T01:37:14;102875.13;;;-4.85;100.00
59170;BME280;52474;52.236;5.114;2022-12-18T01:39:40;102869.13;;;-4.82;100.00
59170;BME280;52474;52.236;5.114;2022-12-18T01:42:14;102869.06;;;-4.87;100.00
59170;BME280;52474;52.236;5.114;2022-12-18T01:45:04;102863.88;;;-4.87;100.00
59170;BME280;52474;52.236;5.114;2022-12-18T01:50:31;102876.66;;;-4.98;100.00
59170;BME280;52474;52.236;5.114;2022-12-18T01:55:30;102880.81;;;-5.10;100.00
59170;BME280;52474;52.236;5.114;2022-12-18T01:57:58;102899.81;;;-5.08;100.00
59170;BME280;52474;52.236;5.114;2022-12-18T02:00:25;102899.03;;;-5.01;100.00
59170;BME280;52474;52.236;5.114;2022-12-18T02:02:51;102906.84;;;-4.97;100.00
59170;BME280;52474;52.236;5.114;2022-12-18T02:05:26;102900.72;;;-5.03;100.00
59170;BME280;52474;52.236;5.114;2022-12-18T02:08:08;102892.03;;;-5.11;100.00
59170;BME280;52474;52.236;5.114;2022-12-18T02:11:01;102931.00;;;-4.94;100.00
59170;BME280;52474;52.236;5.114;2022-12-18T02:16:27;102917.84;;;-5.11;100.00
59170;BME280;52474;52.236;5.114;2022-12-18T02:19:00;102937.00;;;-4.96;100.00
59170;BME280;52474;52.236;5.114;2022-12-18T02:26:42;102936.16;;;-4.94;100.00
59170;BME280;52474;52.236;5.114;2022-12-18T02:29:21;102904.97;;;-5.08;100.00
59170;BME280;52474;52.236;5.114;2022-12-18T02:31:52;102918.97;;;-4.91;100.00
59170;BME280;52474;52.236;5.114;2022-12-18T02:34:22;102909.44;;;-4.97;100.00
59170;BME280;52474;52.236;5.114;2022-12-18T02:36:51;102906.78;;;-5.00;100.00
59170;BME280;52474;52.236;5.114;2022-12-18T02:39:20;102905.91;;;-5.03;100.00
59170;BME280;52474;52.236;5.114;2022-12-18T02:41:58;102893.84;;;-5.03;100.00
59170;BME280;52474;52.236;5.114;2022-12-18T02:44:25;102873.94;;;-5.11;100.00
59170;BME280;52474;52.236;5.114;2022-12-18T02:46:53;102879.16;;;-5.07;100.00
59170;BME280;52474;52.236;5.114;2022-12-18T02:57:51;102845.28;;;-5.30;100.00
59170;BME280;52474;52.236;5.114;2022-12-18T03:01:28;102858.38;;;-5.16;100.00
59170;BME280;52474;52.236;5.114;2022-12-18T03:03:31;102864.38;;;-5.19;100.00
59170;BME280;52474;52.236;5.114;2022-12-18T03:06:23;102861.75;;;-5.20;100.00
59170;BME280;52474;52.236;5.114;2022-12-18T03:08:56;102859.06;;;-5.29;100.00
59170;BME280;52474;52.236;5.114;2022-12-18T03:11:25;102858.16;;;-5.33;100.00
59170;BME280;52474;52.236;5.114;2022-12-18T03:14:15;102859.72;;;-5.46;100.00
59170;BME280;52474;52.236;5.114;2022-12-18T03:16:48;102860.56;;;-5.45;100.00
59170;BME280;52474;52.236;5.114;2022-12-18T03:19:19;102828.47;;;-5.66;100.00
59170;BME280;52474;52.236;5.114;2022-12-18T03:21:52;102838.00;;;-5.60;100.00
59170;BME280;52474;52.236;5.114;2022-12-18T03:24:19;102844.81;;;-5.64;100.00
59170;BME280;52474;52.236;5.114;2022-12-18T03:26:50;102843.97;;;-5.66;100.00
59170;BME280;52474;52.236;5.114;2022-12-18T03:29:23;102843.06;;;-5.66;100.00
59170;BME280;52474;52.236;5.114;2022-12-18T03:31:58;102841.31;;;-5.69;100.00
59170;BME280;52474;52.236;5.114;2022-12-18T03:34:31;102828.31;;;-5.76;100.00
59170;BME280;52474;52.236;5.114;2022-12-18T03:37:01;102829.13;;;-5.80;100.00
59170;BME280;52474;52.236;5.114;2022-12-18T03:39:28;102821.31;;;-5.85;100.00
59170;BME280;52474;52.236;5.114;2022-12-18T03:47:31;102829.81;;;-5.95;100.00
59170;BME280;52474;52.236;5.114;2022-12-18T03:50:16;102818.56;;;-6.00;100.00
59170;BME280;52474;52.236;5.114;2022-12-18T03:53:00;102833.22;;;-5.93;100.00
59170;BME280;52474;52.236;5.114;2022-12-18T03:55:32;102833.25;;;-5.95;100.00
59170;BME280;52474;52.236;5.114;2022-12-18T03:58:03;102817.69;;;-5.99;100.00
59170;BME280;52474;52.236;5.114;2022-12-18T04:00:44;102806.44;;;-6.05;100.00
59170;BME280;52474;52.236;5.114;2022-12-18T04:03:12;102809.91;;;-6.02;100.00
59170;BME280;52474;52.236;5.114;2022-12-18T04:05:44;102813.28;;;-6.07;100.00
59170;BME280;52474;52.236;5.114;2022-12-18T04:08:12;102777.78;;;-6.23;100.00
59170;BME280;52474;52.236;5.114;2022-12-18T04:10:43;102796.88;;;-6.12;100.00
59170;BME280;52474;52.236;5.114;2022-12-18T04:13:09;102777.97;;;-6.12;100.00
59170;BME280;52474;52.236;5.114;2022-12-18T04:15:36;102784.75;;;-6.17;100.00
59170;BME280;52474;52.236;5.114;2022-12-18T04:18:04;102753.53;;;-6.36;100.00
59170;BME280;52474;52.236;5.114;2022-12-18T04:20:37;102793.41;;;-6.14;100.00
59170;BME280;52474;52.236;5.114;2022-12-18T04:23:02;102788.19;;;-6.17;100.00
59170;BME280;52474;52.236;5.114;2022-12-18T04:25:28;102787.31;;;-6.19;100.00
59170;BME280;52474;52.236;5.114;2022-12-18T04:28:07;102776.03;;;-6.26;100.00
59170;BME280;52474;52.236;5.114;2022-12-18T04:30:34;102794.13;;;-6.22;100.00
59170;BME280;52474;52.236;5.114;2022-12-18T04:33:00;102795.75;;;-6.28;100.00
59170;BME280;52474;52.236;5.114;2022-12-18T04:35:28;102799.22;;;-6.27;100.00
59170;BME280;52474;52.236;5.114;2022-12-18T04:37:53;102805.25;;;-6.27;100.00
59170;BME280;52474;52.236;5.114;2022-12-18T04:40:19;102816.38;;;-6.28;100.00
59170;BME280;52474;52.236;5.114;2022-12-18T04:42:47;102818.09;;;-6.28;100.00
59170;BME280;52474;52.236;5.114;2022-12-18T04:45:12;102802.38;;;-6.43;100.00
59170;BME280;52474;52.236;5.114;2022-12-18T04:47:38;102823.13;;;-6.36;100.00
59170;BME280;52474;52.236;5.114;2022-12-18T04:50:04;102824.81;;;-6.38;100.00
59170;BME280;52474;52.236;5.114;2022-12-18T04:52:30;102812.66;;;-6.45;100.00
59170;BME280;52474;52.236;5.114;2022-12-18T04:54:56;102828.19;;;-6.42;100.00
59170;BME280;52474;52.236;5.114;2022-12-18T04:57:21;102834.19;;;-6.43;100.00
59170;BME280;52474;52.236;5.114;2022-12-18T04:59:47;102821.09;;;-6.55;100.00
59170;BME280;52474;52.236;5.114;2022-12-18T05:02:12;102846.13;;;-6.50;100.00
59170;BME280;52474;52.236;5.114;2022-12-18T05:04:38;102821.72;;;-6.68;100.00
59170;BME280;52474;52.236;5.114;2022-12-18T05:07:04;102829.44;;;-6.68;100.00
59170;BME280;52474;52.236;5.114;2022-12-18T05:09:30;102851.09;;;-6.59;100.00
59170;BME280;52474;52.236;5.114;2022-12-18T05:11:55;102857.06;;;-6.61;100.00
59170;BME280;52474;52.236;5.114;2022-12-18T05:14:21;102845.84;;;-6.63;100.00
59170;BME280;52474;52.236;5.114;2022-12-18T05:16:47;102849.22;;;-6.67;100.00
59170;BME280;52474;52.236;5.114;2022-12-18T05:19:13;102825.88;;;-6.77;100.00
59170;BME280;52474;52.236;5.114;2022-12-18T05:21:39;102856.22;;;-6.62;100.00
59170;BME280;52474;52.236;5.114;2022-12-18T05:24:04;102859.59;;;-6.64;100.00
59170;BME280;52474;52.236;5.114;2022-12-18T05:26:30;102849.94;;;-6.75;100.00
59170;BME280;52474;52.236;5.114;2022-12-18T05:28:56;102832.50;;;-6.89;100.00
59170;BME280;52474;52.236;5.114;2022-12-18T05:31:24;102870.72;;;-6.65;100.00
59170;BME280;52474;52.236;5.114;2022-12-18T05:33:50;102829.94;;;-6.88;100.00
59170;BME280;52474;52.236;5.114;2022-12-18T05:36:16;102867.34;;;-6.64;100.00
59170;BME280;52474;52.236;5.114;2022-12-18T05:38:41;102850.19;;;-6.61;100.00
59170;BME280;52474;52.236;5.114;2022-12-18T05:41:08;102836.41;;;-6.64;100.00
59170;BME280;52474;52.236;5.114;2022-12-18T05:43:38;102835.50;;;-6.66;100.00
59170;BME280;52474;52.236;5.114;2022-12-18T05:46:12;102822.50;;;-6.73;100.00
59170;BME280;52474;52.236;5.114;2022-12-18T05:48:38;102814.75;;;-6.74;100.00
59170;BME280;52474;52.236;5.114;2022-12-18T05:51:10;102827.78;;;-6.65;100.00
59170;BME280;52474;52.236;5.114;2022-12-18T05:53:36;102832.13;;;-6.62;100.00
59170;BME280;52474;52.236;5.114;2022-12-18T05:56:04;102796.72;;;-6.74;100.00
59170;BME280;52474;52.236;5.114;2022-12-18T05:58:31;102809.78;;;-6.63;100.00
59170;BME280;52474;52.236;5.114;2022-12-18T06:00:58;102816.63;;;-6.65;100.00
59170;BME280;52474;52.236;5.114;2022-12-18T06:03:30;102819.19;;;-6.65;100.00
59170;BME280;52474;52.236;5.114;2022-12-18T06:05:56;102821.72;;;-6.67;100.00
59170;BME280;52474;52.236;5.114;2022-12-18T06:08:22;102815.84;;;-6.61;100.00
59170;BME280;52474;52.236;5.114;2022-12-18T06:10:52;102806.44;;;-6.59;100.00
59170;BME280;52474;52.236;5.114;2022-12-18T06:13:19;102777.88;;;-6.72;100.00
59170;BME280;52474;52.236;5.114;2022-12-18T06:15:45;102802.22;;;-6.54;100.00
59170;BME280;52474;52.236;5.114;2022-12-18T06:18:11;102805.66;;;-6.54;100.00
59170;BME280;52474;52.236;5.114;2022-12-18T06:20:37;102810.72;;;-6.58;100.00
59170;BME280;52474;52.236;5.114;2022-12-18T06:23:06;102790.81;;;-6.68;100.00
59170;BME280;52474;52.236;5.114;2022-12-18T06:25:32;102787.44;;;-6.64;100.00
59170;BME280;52474;52.236;5.114;2022-12-18T06:27:59;102817.69;;;-6.54;100.00
59170;BME280;52474;52.236;5.114;2022-12-18T06:30:24;102801.31;;;-6.56;100.00
59170;BME280;52474;52.236;5.114;2022-12-18T06:32:50;102791.78;;;-6.60;100.00
59170;BME280;52474;52.236;5.114;2022-12-18T06:35:16;102781.31;;;-6.71;100.00
59170;BME280;52474;52.236;5.114;2022-12-18T06:37:42;102771.75;;;-6.78;100.00
59170;BME280;52474;52.236;5.114;2022-12-18T06:40:08;102786.44;;;-6.73;100.00
59170;BME280;52474;52.236;5.114;2022-12-18T06:42:34;102782.94;;;-6.75;100.00
59170;BME280;52474;52.236;5.114;2022-12-18T06:44:59;102757.81;;;-6.88;100.00
59170;BME280;52474;52.236;5.114;2022-12-18T06:47:25;102762.34;;;-6.75;100.00
59170;BME280;52474;52.236;5.114;2022-12-18T06:49:51;102760.56;;;-6.79;100.00
59170;BME280;52474;52.236;5.114;2022-12-18T06:52:16;102755.41;;;-6.79;100.00
59170;BME280;52474;52.236;5.114;2022-12-18T06:54:42;102764.91;;;-6.76;100.00
59170;BME280;52474;52.236;5.114;2022-12-18T06:57:08;102743.41;;;-6.78;100.00
59170;BME280;52474;52.236;5.114;2022-12-18T06:59:34;102751.22;;;-6.72;100.00
59170;BME280;52474;52.236;5.114;2022-12-18T07:01:59;102730.34;;;-6.87;100.00
59170;BME280;52474;52.236;5.114;2022-12-18T07:04:29;102746.97;;;-6.70;100.00
59170;BME280;52474;52.236;5.114;2022-12-18T07:06:55;102722.66;;;-6.84;100.00
59170;BME280;52474;52.236;5.114;2022-12-18T07:09:21;102741.81;;;-6.70;100.00
59170;BME280;52474;52.236;5.114;2022-12-18T07:11:47;102745.31;;;-6.65;100.00
59170;BME280;52474;52.236;5.114;2022-12-18T07:14:12;102747.03;;;-6.65;100.00
59170;BME280;52474;52.236;5.114;2022-12-18T07:16:38;102751.38;;;-6.63;100.00
59170;BME280;52474;52.236;5.114;2022-12-18T07:19:04;102741.09;;;-6.61;100.00
59170;BME280;52474;52.236;5.114;2022-12-18T07:21:30;102736.00;;;-6.58;100.00
59170;BME280;52474;52.236;5.114;2022-12-18T07:23:56;102718.66;;;-6.67;100.00
59170;BME280;52474;52.236;5.114;2022-12-18T07:26:22;102739.53;;;-6.50;100.00
59170;BME280;52474;52.236;5.114;2022-12-18T07:28:48;102729.19;;;-6.53;100.00
59170;BME280;52474;52.236;5.114;2022-12-18T07:31:17;102728.41;;;-6.48;100.00
59170;BME280;52474;52.236;5.114;2022-12-18T07:33:44;102716.41;;;-6.47;100.00
59170;BME280;52474;52.236;5.114;2022-12-18T07:36:11;102719.88;;;-6.45;100.00
59170;BME280;52474;52.236;5.114;2022-12-18T07:38:37;102706.97;;;-6.46;100.00
59170;BME280;52474;52.236;5.114;2022-12-18T07:41:04;102704.41;;;-6.45;100.00
59170;BME280;52474;52.236;5.114;2022-12-18T07:43:30;102697.47;;;-6.49;100.00
59170;BME280;52474;52.236;5.114;2022-12-18T07:45:56;102668.16;;;-6.56;100.00
59170;BME280;52474;52.236;5.114;2022-12-18T07:48:22;102686.47;;;-6.39;100.00
59170;BME280;52474;52.236;5.114;2022-12-18T07:50:47;102686.41;;;-6.40;100.00
59170;BME280;52474;52.236;5.114;2022-12-18T07:53:13;102688.22;;;-6.36;100.00
59170;BME280;52474;52.236;5.114;2022-12-18T07:55:42;102683.13;;;-6.32;100.00
59170;BME280;52474;52.236;5.114;2022-12-18T07:58:08;102677.97;;;-6.32;100.00
59170;BME280;52474;52.236;5.114;2022-12-18T08:00:34;102682.34;;;-6.26;100.00
59170;BME280;52474;52.236;5.114;2022-12-18T08:03:01;102675.53;;;-6.22;100.00
59170;BME280;52474;52.236;5.114;2022-12-18T08:05:27;102672.13;;;-6.20;100.00
59170;BME280;52474;52.236;5.114;2022-12-18T08:07:53;102647.91;;;-6.30;100.00
59170;BME280;52474;52.236;5.114;2022-12-18T08:10:19;102653.19;;;-6.22;100.00
59170;BME280;52474;52.236;5.114;2022-12-18T08:12:45;102684.38;;;-6.02;100.00
59170;BME280;52474;52.236;5.114;2022-12-18T08:15:14;102677.59;;;-5.95;100.00
59170;BME280;52474;52.236;5.114;2022-12-18T08:17:39;102693.06;;;-5.94;100.00
59170;BME280;52474;52.236;5.114;2022-12-18T08:20:06;102706.03;;;-5.86;100.00
59170;BME280;52474;52.236;5.114;2022-12-18T08:22:34;102711.22;;;-5.85;100.00
59170;BME280;52474;52.236;5.114;2022-12-18T08:25:00;102705.28;;;-5.77;100.00
59170;BME280;52474;52.236;5.114;2022-12-18T08:27:26;102700.97;;;-5.78;100.00
59170;BME280;52474;52.236;5.114;2022-12-18T08:29:51;102702.69;;;-5.80;100.00
59170;BME280;52474;52.236;5.114;2022-12-18T08:32:17;102708.75;;;-5.75;100.00
59170;BME280;52474;52.236;5.114;2022-12-18T08:34:46;102713.16;;;-5.67;100.00
59170;BME280;52474;52.236;5.114;2022-12-18T08:37:18;102710.56;;;-5.67;100.00
59170;BME280;52474;52.236;5.114;2022-12-18T08:39:43;102710.59;;;-5.64;100.00
59170;BME280;52474;52.236;5.114;2022-12-18T08:42:09;102701.09;;;-5.66;100.00
59170;BME280;52474;52.236;5.114;2022-12-18T08:44:54;102680.66;;;-5.51;100.00
59170;BME280;52474;52.236;5.114;2022-12-18T08:47:20;102685.06;;;-5.39;100.00
59170;BME280;52474;52.236;5.114;2022-12-18T08:49:45;102697.25;;;-5.27;100.00
59170;BME280;52474;52.236;5.114;2022-12-18T08:52:11;102686.16;;;-5.19;100.00
59170;BME280;52474;52.236;5.114;2022-12-18T08:54:37;102690.63;;;-4.99;100.00
59170;BME280;52474;52.236;5.114;2022-12-18T08:57:03;102647.38;;;-5.20;100.00
59170;BME280;52474;52.236;5.114;2022-12-18T08:59:29;102659.63;;;-4.98;100.00
59170;BME280;52474;52.236;5.114;2022-12-18T09:01:54;102664.91;;;-4.84;100.00
59170;BME280;52474;52.236;5.114;2022-12-18T09:04:21;102671.91;;;-4.69;100.00
59170;BME280;52474;52.236;5.114;2022-12-18T09:06:47;102617.50;;;-4.87;100.00
59170;BME280;52474;52.236;5.114;2022-12-18T09:09:12;102670.31;;;-4.48;100.00
59170;BME280;52474;52.236;5.114;2022-12-18T09:11:38;102680.63;;;-4.56;100.00
59170;BME280;52474;52.236;5.114;2022-12-18T09:14:04;102671.16;;;-4.54;100.00
59170;BME280;52474;52.236;5.114;2022-12-18T09:16:31;102685.84;;;-4.50;100.00
59170;BME280;52474;52.236;5.114;2022-12-18T09:18:57;102686.78;;;-4.37;100.00
59170;BME280;52474;52.236;5.114;2022-12-18T09:21:29;102640.16;;;-4.53;100.00
59170;BME280;52474;52.236;5.114;2022-12-18T09:23:55;102675.63;;;-4.33;100.00
59170;BME280;52474;52.236;5.114;2022-12-18T09:26:23;102660.09;;;-4.30;100.00
59170;BME280;52474;52.236;5.114;2022-12-18T09:28:49;102676.56;;;-4.16;100.00
59170;BME280;52474;52.236;5.114;2022-12-18T09:31:17;102664.53;;;-4.07;100.00
59170;BME280;52474;52.236;5.114;2022-12-18T09:33:43;102658.47;;;-4.10;100.00
59170;BME280;52474;52.236;5.114;2022-12-18T09:36:13;102660.25;;;-4.01;100.00
59170;BME280;52474;52.236;5.114;2022-12-18T09:38:39;102632.63;;;-4.03;100.00
59170;BME280;52474;52.236;5.114;2022-12-18T09:43:51;102655.06;;;-3.99;100.00
59170;BME280;52474;52.236;5.114;2022-12-18T09:46:30;102662.00;;;-3.95;100.00
59170;BME280;52474;52.236;5.114;2022-12-18T09:49:02;102666.31;;;-3.90;100.00
59170;BME280;52474;52.236;5.114;2022-12-18T09:51:45;102656.00;;;-3.80;100.00
59170;BME280;52474;52.236;5.114;2022-12-18T09:54:20;102633.53;;;-3.84;100.00
59170;BME280;52474;52.236;5.114;2022-12-18T09:56:48;102632.72;;;-3.80;100.00
59170;BME280;52474;52.236;5.114;2022-12-18T09:59:20;102623.22;;;-3.81;100.00
59170;BME280;52474;52.236;5.114;2022-12-18T10:01:46;102618.88;;;-3.85;100.00
59170;BME280;52474;52.236;5.114;2022-12-18T10:04:12;102619.78;;;-3.65;100.00
59170;BME280;52474;52.236;5.114;2022-12-18T10:07:13;102623.22;;;-3.78;100.00
59170;BME280;52474;52.236;5.114;2022-12-18T10:09:50;102631.88;;;-3.70;100.00
59170;BME280;52474;52.236;5.114;2022-12-18T10:15:06;102659.50;;;-3.66;100.00
59170;BME280;52474;52.236;5.114;2022-12-18T10:20:43;102656.94;;;-3.58;100.00
59170;BME280;52474;52.236;5.114;2022-12-18T10:26:07;102625.84;;;-3.63;100.00
59170;BME280;52474;52.236;5.114;2022-12-18T10:28:36;102583.50;;;-3.86;100.00
59170;BME280;52474;52.236;5.114;2022-12-18T10:31:20;102628.44;;;-3.55;100.00
59170;BME280;52474;52.236;5.114;2022-12-18T10:33:47;102615.47;;;-3.64;100.00
59170;BME280;52474;52.236;5.114;2022-12-18T10:36:13;102629.31;;;-3.46;100.00
59170;BME280;52474;52.236;5.114;2022-12-18T10:38:38;102625.88;;;-3.38;100.00
59170;BME280;52474;52.236;5.114;2022-12-18T10:41:08;102619.00;;;-3.24;100.00
59170;BME280;52474;52.236;5.114;2022-12-18T10:44:11;102612.94;;;-3.15;100.00
59170;BME280;52474;52.236;5.114;2022-12-18T10:46:37;102585.31;;;-3.32;100.00
59170;BME280;52474;52.236;5.114;2022-12-18T10:49:04;102611.22;;;-3.13;100.00
59170;BME280;52474;52.236;5.114;2022-12-18T10:51:33;102610.34;;;-3.09;100.00
59170;BME280;52474;52.236;5.114;2022-12-18T10:56:27;102579.25;;;-3.15;100.00
59170;BME280;52474;52.236;5.114;2022-12-18T10:59:03;102580.97;;;-2.99;100.00
59170;BME280;52474;52.236;5.114;2022-12-18T11:04:20;102573.19;;;-2.85;100.00
59170;BME280;52474;52.236;5.114;2022-12-18T11:07:04;102547.28;;;-3.04;100.00
59170;BME280;52474;52.236;5.114;2022-12-18T11:09:33;102573.16;;;-2.82;100.00
59170;BME280;52474;52.236;5.114;2022-12-18T11:12:05;102574.00;;;-2.63;100.00
59170;BME280;52474;52.236;5.114;2022-12-18T11:14:34;102562.72;;;-2.54;100.00
59170;BME280;52474;52.236;5.114;2022-12-18T11:17:39;102561.88;;;-2.60;100.00
59170;BME280;52474;52.236;5.114;2022-12-18T11:20:23;102564.47;;;-2.55;100.00
59170;BME280;52474;52.236;5.114;2022-12-18T11:23:01;102526.41;;;-2.56;100.00
59170;BME280;52474;52.236;5.114;2022-12-18T11:25:28;102551.44;;;-2.38;100.00
59170;BME280;52474;52.236;5.114;2022-12-18T11:27:59;102541.91;;;-2.44;100.00
59170;BME280;52474;52.236;5.114;2022-12-18T11:30:31;102547.13;;;-2.45;100.00
59170;BME280;52474;52.236;5.114;2022-12-18T11:38:19;102558.25;;;-2.17;100.00
59170;BME280;52474;52.236;5.114;2022-12-18T11:40:55;102553.06;;;-2.22;100.00
59170;BME280;52474;52.236;5.114;2022-12-18T11:43:45;102561.69;;;-2.15;100.00
59170;BME280;52474;52.236;5.114;2022-12-18T11:46:32;102544.47;;;-2.24;100.00
59170;BME280;52474;52.236;5.114;2022-12-18T11:49:22;102521.13;;;-2.28;100.00
59170;BME280;52474;52.236;5.114;2022-12-18T11:52:18;102528.84;;;-2.21;100.00
59170;BME280;52474;52.236;5.114;2022-12-18T11:54:46;102518.47;;;-2.21;100.00
59170;BME280;52474;52.236;5.114;2022-12-18T12:00:20;102496.84;;;-2.24;100.00
59170;BME280;52474;52.236;5.114;2022-12-18T12:03:18;102497.72;;;-2.22;100.00
59170;BME280;52474;52.236;5.114;2022-12-18T12:06:05;102482.09;;;-2.14;100.00
59170;BME280;52474;52.236;5.114;2022-12-18T12:09:00;102483.84;;;-2.18;100.00
59170;BME280;52474;52.236;5.114;2022-12-18T12:14:37;102472.50;;;-1.99;100.00
59170;BME280;52474;52.236;5.114;2022-12-18T12:17:27;102472.44;;;-1.89;100.00
59170;BME280;52474;52.236;5.114;2022-12-18T12:20:12;102452.47;;;-1.84;100.00
59170;BME280;52474;52.236;5.114;2022-12-18T12:23:12;102463.72;;;-1.84;100.00
59170;BME280;52474;52.236;5.114;2022-12-18T12:28:16;102461.03;;;-1.73;100.00
59170;BME280;52474;52.236;5.114;2022-12-18T12:34:18;102442.91;;;-1.79;100.00
59170;BME280;52474;52.236;5.114;2022-12-18T12:37:02;102449.78;;;-1.75;100.00
59170;BME280;52474;52.236;5.114;2022-12-18T12:39:35;102444.66;;;-1.81;100.00
59170;BME280;52474;52.236;5.114;2022-12-18T12:42:04;102429.00;;;-1.74;100.00
59170;BME280;52474;52.236;5.114;2022-12-18T12:44:58;102413.56;;;-1.90;100.00
59170;BME280;52474;52.236;5.114;2022-12-18T12:47:30;102434.16;;;-1.70;100.00
59170;BME280;52474;52.236;5.114;2022-12-18T12:49:59;102424.63;;;-1.67;100.00
59170;BME280;52474;52.236;5.114;2022-12-18T12:52:35;102412.59;;;-1.77;100.00
59170;BME280;52474;52.236;5.114;2022-12-18T12:55:04;102425.47;;;-1.66;100.00
59170;BME280;52474;52.236;5.114;2022-12-18T12:57:34;102407.41;;;-1.79;100.00
59170;BME280;52474;52.236;5.114;2022-12-18T13:00:16;102403.91;;;-1.75;100.00
59170;BME280;52474;52.236;5.114;2022-12-18T13:05:31;102409.03;;;-1.68;100.00
59170;BME280;52474;52.236;5.114;2022-12-18T13:08:09;102419.44;;;-1.68;100.00
59170;BME280;52474;52.236;5.114;2022-12-18T13:10:36;102416.78;;;-1.65;100.00
59170;BME280;52474;52.236;5.114;2022-12-18T13:13:08;102387.56;;;-1.84;100.00
59170;BME280;52474;52.236;5.114;2022-12-18T13:23:19;102383.16;;;-1.76;100.00
59170;BME280;52474;52.236;5.114;2022-12-18T13:25:45;102377.16;;;-1.84;100.00
59170;BME280;52474;52.236;5.114;2022-12-18T13:28:14;102399.50;;;-1.68;100.00
59170;BME280;52474;52.236;5.114;2022-12-18T13:43:41;102355.38;;;-1.71;100.00
59170;BME280;52474;52.236;5.114;2022-12-18T13:46:28;102338.94;;;-1.73;100.00
59170;BME280;52474;52.236;5.114;2022-12-18T13:49:02;102339.84;;;-1.74;100.00
59170;BME280;52474;52.236;5.114;2022-12-18T13:51:32;102343.28;;;-1.75;100.00
59170;BME280;52474;52.236;5.114;2022-12-18T13:54:01;102333.78;;;-1.76;100.00
59170;BME280;52474;52.236;5.114;2022-12-18T13:56:30;102339.81;;;-1.71;100.00
59170;BME280;52474;52.236;5.114;2022-12-18T13:59:35;102336.31;;;-1.68;100.00
59170;BME280;52474;52.236;5.114;2022-12-18T14:02:23;102333.72;;;-1.67;100.00
59170;BME280;52474;52.236;5.114;2022-12-18T14:04:50;102308.72;;;-1.79;100.00
59170;BME280;52474;52.236;5.114;2022-12-18T14:07:22;102329.38;;;-1.68;100.00
59170;BME280;52474;52.236;5.114;2022-12-18T14:09:59;102328.53;;;-1.68;100.00
59170;BME280;52474;52.236;5.114;2022-12-18T14:12:27;102319.91;;;-1.75;100.00
59170;BME280;52474;52.236;5.114;2022-12-18T14:18:01;102312.94;;;-1.70;100.00
59170;BME280;52474;52.236;5.114;2022-12-18T14:20:30;102313.78;;;-1.68;100.00
59170;BME280;52474;52.236;5.114;2022-12-18T14:22:57;102317.19;;;-1.63;100.00
59170;BME280;52474;52.236;5.114;2022-12-18T14:25:28;102305.09;;;-1.62;100.00